sensor_id;sensor_type;location;lat;lon;timestamp;temperature;humidity
70079;DHT22;57451;52.496;13.456;2023-08-06T00:01:38;18.80;72.10
70079;DHT22;57451;52.496;13.456;2023-08-06T00:04:05;18.80;72.00
70079;DHT22;57451;52.496;13.456;2023-08-06T00:06:34;18.70;72.10
70079;DHT22;57451;52.496;13.456;2023-08-06T00:09:01;18.70;71.50
70079;DHT22;57451;52.496;13.456;2023-08-06T00:11:29;18.70;71.50
70079;DHT22;57451;52.496;13.456;2023-08-06T00:13:56;18.70;72.00
70079;DHT22;57451;52.496;13.456;2023-08-06T00:16:23;18.70;72.00
70079;DHT22;57451;52.496;13.456;2023-08-06T00:18:51;18.70;72.40
70079;DHT22;57451;52.496;13.456;2023-08-06T00:21:18;18.60;72.60
70079;DHT22;57451;52.496;13.456;2023-08-06T00:23:47;18.60;71.70
70079;DHT22;57451;52.496;13.456;2023-08-06T00:26:14;18.60;72.10
70079;DHT22;57451;52.496;13.456;2023-08-06T00:28:42;18.60;72.20
70079;DHT22;57451;52.496;13.456;2023-08-06T00:31:09;18.60;72.60
70079;DHT22;57451;52.496;13.456;2023-08-06T00:33:36;18.60;72.50
70079;DHT22;57451;52.496;13.456;2023-08-06T00:36:04;18.60;72.70
70079;DHT22;57451;52.496;13.456;2023-08-06T00:38:32;18.60;72.50
70079;DHT22;57451;52.496;13.456;2023-08-06T00:41:00;18.50;72.60
70079;DHT22;57451;52.496;13.456;2023-08-06T00:43:28;18.60;72.40
70079;DHT22;57451;52.496;13.456;2023-08-06T00:45:55;18.60;72.80
70079;DHT22;57451;52.496;13.456;2023-08-06T00:48:23;18.50;72.70
70079;DHT22;57451;52.496;13.456;2023-08-06T00:50:51;18.50;72.60
70079;DHT22;57451;52.496;13.456;2023-08-06T00:53:18;18.50;72.80
70079;DHT22;57451;52.496;13.456;2023-08-06T00:55:46;18.50;73.00
70079;DHT22;57451;52.496;13.456;2023-08-06T00:58:16;18.50;73.00
70079;DHT22;57451;52.496;13.456;2023-08-06T01:00:44;18.50;73.20
70079;DHT22;57451;52.496;13.456;2023-08-06T01:03:13;18.50;73.30
70079;DHT22;57451;52.496;13.456;2023-08-06T01:05:40;18.50;73.40
70079;DHT22;57451;52.496;13.456;2023-08-06T01:08:15;18.40;73.30
70079;DHT22;57451;52.496;13.456;2023-08-06T01:10:51;18.40;73.30
70079;DHT22;57451;52.496;13.456;2023-08-06T01:13:30;18.40;73.20
70079;DHT22;57451;52.496;13.456;2023-08-06T01:15:59;18.40;73.10
70079;DHT22;57451;52.496;13.456;2023-08-06T01:18:27;18.40;73.60
70079;DHT22;57451;52.496;13.456;2023-08-06T01:20:56;18.30;73.50
70079;DHT22;57451;52.496;13.456;2023-08-06T01:23:24;18.30;73.50
70079;DHT22;57451;52.496;13.456;2023-08-06T01:25:56;18.30;74.30
70079;DHT22;57451;52.496;13.456;2023-08-06T01:28:33;18.20;74.40
70079;DHT22;57451;52.496;13.456;2023-08-06T01:31:07;18.20;74.40
70079;DHT22;57451;52.496;13.456;2023-08-06T01:33:40;18.20;74.40
70079;DHT22;57451;52.496;13.456;2023-08-06T01:36:12;18.20;74.50
70079;DHT22;57451;52.496;13.456;2023-08-06T01:38:40;18.20;74.40
70079;DHT22;57451;52.496;13.456;2023-08-06T01:41:08;18.20;74.50
70079;DHT22;57451;52.496;13.456;2023-08-06T01:43:36;18.20;74.30
70079;DHT22;57451;52.496;13.456;2023-08-06T01:46:04;18.10;74.50
70079;DHT22;57451;52.496;13.456;2023-08-06T01:48:31;18.10;74.70
70079;DHT22;57451;52.496;13.456;2023-08-06T01:50:58;18.10;74.40
70079;DHT22;57451;52.496;13.456;2023-08-06T01:53:27;18.10;74.80
70079;DHT22;57451;52.496;13.456;2023-08-06T01:55:54;18.10;74.40
70079;DHT22;57451;52.496;13.456;2023-08-06T01:58:22;18.10;74.80
70079;DHT22;57451;52.496;13.456;2023-08-06T02:00:49;18.10;74.60
70079;DHT22;57451;52.496;13.456;2023-08-06T02:03:17;18.10;74.90
70079;DHT22;57451;52.496;13.456;2023-08-06T02:05:44;18.10;74.90
70079;DHT22;57451;52.496;13.456;2023-08-06T02:08:12;18.10;75.10
70079;DHT22;57451;52.496;13.456;2023-08-06T02:10:41;18.00;75.30
70079;DHT22;57451;52.496;13.456;2023-08-06T02:13:08;18.00;75.30
70079;DHT22;57451;52.496;13.456;2023-08-06T02:15:42;18.00;75.70
70079;DHT22;57451;52.496;13.456;2023-08-06T02:18:09;18.00;75.70
70079;DHT22;57451;52.496;13.456;2023-08-06T02:20:36;17.90;75.70
70079;DHT22;57451;52.496;13.456;2023-08-06T02:23:04;17.90;75.70
70079;DHT22;57451;52.496;13.456;2023-08-06T02:25:31;17.90;75.60
70079;DHT22;57451;52.496;13.456;2023-08-06T02:28:01;17.90;76.00
70079;DHT22;57451;52.496;13.456;2023-08-06T02:30:28;17.90;76.10
70079;DHT22;57451;52.496;13.456;2023-08-06T02:32:55;17.80;76.00
70079;DHT22;57451;52.496;13.456;2023-08-06T02:35:23;17.80;76.00
70079;DHT22;57451;52.496;13.456;2023-08-06T02:37:50;17.80;75.80
70079;DHT22;57451;52.496;13.456;2023-08-06T02:40:17;17.80;75.70
70079;DHT22;57451;52.496;13.456;2023-08-06T02:42:45;17.80;76.10
70079;DHT22;57451;52.496;13.456;2023-08-06T02:45:13;17.70;76.00
70079;DHT22;57451;52.496;13.456;2023-08-06T02:47:41;17.70;75.90
70079;DHT22;57451;52.496;13.456;2023-08-06T02:50:09;17.70;75.20
70079;DHT22;57451;52.496;13.456;2023-08-06T02:52:36;17.70;75.50
70079;DHT22;57451;52.496;13.456;2023-08-06T02:55:06;17.70;75.70
70079;DHT22;57451;52.496;13.456;2023-08-06T02:57:37;17.70;75.70
70079;DHT22;57451;52.496;13.456;2023-08-06T03:00:06;17.70;75.80
70079;DHT22;57451;52.496;13.456;2023-08-06T03:02:35;17.70;76.00
70079;DHT22;57451;52.496;13.456;2023-08-06T03:05:17;17.70;76.10
70079;DHT22;57451;52.496;13.456;2023-08-06T03:07:47;17.60;76.20
70079;DHT22;57451;52.496;13.456;2023-08-06T03:10:22;17.60;76.40
70079;DHT22;57451;52.496;13.456;2023-08-06T03:12:52;17.60;76.10
70079;DHT22;57451;52.496;13.456;2023-08-06T03:15:20;17.60;76.40
70079;DHT22;57451;52.496;13.456;2023-08-06T03:17:49;17.60;76.60
70079;DHT22;57451;52.496;13.456;2023-08-06T03:20:20;17.60;76.60
70079;DHT22;57451;52.496;13.456;2023-08-06T03:22:47;17.50;77.00
70079;DHT22;57451;52.496;13.456;2023-08-06T03:25:15;17.50;77.00
70079;DHT22;57451;52.496;13.456;2023-08-06T03:27:46;17.50;77.00
70079;DHT22;57451;52.496;13.456;2023-08-06T03:30:16;17.50;77.00
70079;DHT22;57451;52.496;13.456;2023-08-06T03:32:44;17.50;77.10
70079;DHT22;57451;52.496;13.456;2023-08-06T03:35:13;17.50;76.70
70079;DHT22;57451;52.496;13.456;2023-08-06T03:37:41;17.50;77.00
70079;DHT22;57451;52.496;13.456;2023-08-06T03:40:09;17.50;77.00
70079;DHT22;57451;52.496;13.456;2023-08-06T03:42:37;17.50;77.00
70079;DHT22;57451;52.496;13.456;2023-08-06T03:45:05;17.50;77.10
70079;DHT22;57451;52.496;13.456;2023-08-06T03:47:33;17.40;76.30
70079;DHT22;57451;52.496;13.456;2023-08-06T03:50:01;17.40;75.60
70079;DHT22;57451;52.496;13.456;2023-08-06T03:52:30;17.40;76.50
70079;DHT22;57451;52.496;13.456;2023-08-06T03:54:58;17.40;76.90
70079;DHT22;57451;52.496;13.456;2023-08-06T03:57:25;17.40;76.80
70079;DHT22;57451;52.496;13.456;2023-08-06T03:59:52;17.40;77.00
70079;DHT22;57451;52.496;13.456;2023-08-06T04:02:24;17.40;77.20
70079;DHT22;57451;52.496;13.456;2023-08-06T04:04:52;17.40;77.10
70079;DHT22;57451;52.496;13.456;2023-08-06T04:07:21;17.40;77.50
70079;DHT22;57451;52.496;13.456;2023-08-06T04:09:57;17.40;77.20
70079;DHT22;57451;52.496;13.456;2023-08-06T04:12:25;17.40;76.40
70079;DHT22;57451;52.496;13.456;2023-08-06T04:14:54;17.40;76.20
70079;DHT22;57451;52.496;13.456;2023-08-06T04:17:21;17.40;76.30
70079;DHT22;57451;52.496;13.456;2023-08-06T04:19:50;17.40;76.20
70079;DHT22;57451;52.496;13.456;2023-08-06T04:22:19;17.40;77.00
70079;DHT22;57451;52.496;13.456;2023-08-06T04:24:46;17.40;77.10
70079;DHT22;57451;52.496;13.456;2023-08-06T04:27:16;17.40;77.10
70079;DHT22;57451;52.496;13.456;2023-08-06T04:29:46;17.40;77.10
70079;DHT22;57451;52.496;13.456;2023-08-06T04:32:15;17.40;77.20
70079;DHT22;57451;52.496;13.456;2023-08-06T04:34:47;17.40;77.30
70079;DHT22;57451;52.496;13.456;2023-08-06T04:37:15;17.40;77.40
70079;DHT22;57451;52.496;13.456;2023-08-06T04:39:43;17.30;76.50
70079;DHT22;57451;52.496;13.456;2023-08-06T04:42:10;17.40;77.00
70079;DHT22;57451;52.496;13.456;2023-08-06T04:44:39;17.30;77.20
70079;DHT22;57451;52.496;13.456;2023-08-06T04:47:06;17.30;77.10
70079;DHT22;57451;52.496;13.456;2023-08-06T04:49:34;17.30;76.00
70079;DHT22;57451;52.496;13.456;2023-08-06T04:52:02;17.30;75.70
70079;DHT22;57451;52.496;13.456;2023-08-06T04:54:29;17.30;75.80
70079;DHT22;57451;52.496;13.456;2023-08-06T04:56:57;17.30;76.40
70079;DHT22;57451;52.496;13.456;2023-08-06T04:59:24;17.30;76.20
70079;DHT22;57451;52.496;13.456;2023-08-06T05:01:52;17.30;75.50
70079;DHT22;57451;52.496;13.456;2023-08-06T05:04:20;17.30;75.10
70079;DHT22;57451;52.496;13.456;2023-08-06T05:06:48;17.30;75.20
70079;DHT22;57451;52.496;13.456;2023-08-06T05:09:15;17.40;75.40
70079;DHT22;57451;52.496;13.456;2023-08-06T05:11:42;17.30;75.20
70079;DHT22;57451;52.496;13.456;2023-08-06T05:14:10;17.40;76.30
70079;DHT22;57451;52.496;13.456;2023-08-06T05:16:37;17.40;75.50
70079;DHT22;57451;52.496;13.456;2023-08-06T05:19:06;17.40;75.60
70079;DHT22;57451;52.496;13.456;2023-08-06T05:21:33;17.40;75.10
70079;DHT22;57451;52.496;13.456;2023-08-06T05:24:00;17.40;75.80
70079;DHT22;57451;52.496;13.456;2023-08-06T05:26:28;17.40;75.30
70079;DHT22;57451;52.496;13.456;2023-08-06T05:28:55;17.40;75.60
70079;DHT22;57451;52.496;13.456;2023-08-06T05:31:22;17.40;74.90
70079;DHT22;57451;52.496;13.456;2023-08-06T05:33:50;17.40;75.80
70079;DHT22;57451;52.496;13.456;2023-08-06T05:36:18;17.40;76.20
70079;DHT22;57451;52.496;13.456;2023-08-06T05:38:46;17.40;76.30
70079;DHT22;57451;52.496;13.456;2023-08-06T05:41:13;17.50;76.30
70079;DHT22;57451;52.496;13.456;2023-08-06T05:43:41;17.50;76.00
70079;DHT22;57451;52.496;13.456;2023-08-06T05:46:08;17.50;75.80
70079;DHT22;57451;52.496;13.456;2023-08-06T05:48:35;17.50;75.10
70079;DHT22;57451;52.496;13.456;2023-08-06T05:51:03;17.50;76.40
70079;DHT22;57451;52.496;13.456;2023-08-06T05:53:32;17.50;76.50
70079;DHT22;57451;52.496;13.456;2023-08-06T05:55:59;17.50;76.80
70079;DHT22;57451;52.496;13.456;2023-08-06T05:58:26;17.60;76.60
70079;DHT22;57451;52.496;13.456;2023-08-06T06:00:56;17.60;76.90
70079;DHT22;57451;52.496;13.456;2023-08-06T06:03:23;17.60;76.80
70079;DHT22;57451;52.496;13.456;2023-08-06T06:05:51;17.60;76.50
70079;DHT22;57451;52.496;13.456;2023-08-06T06:08:18;17.60;76.70
70079;DHT22;57451;52.496;13.456;2023-08-06T06:10:46;17.60;76.60
70079;DHT22;57451;52.496;13.456;2023-08-06T06:13:14;17.60;76.30
70079;DHT22;57451;52.496;13.456;2023-08-06T06:15:41;17.60;76.80
70079;DHT22;57451;52.496;13.456;2023-08-06T06:18:09;17.60;76.80
70079;DHT22;57451;52.496;13.456;2023-08-06T06:20:36;17.60;76.10
70079;DHT22;57451;52.496;13.456;2023-08-06T06:23:03;17.60;75.30
70079;DHT22;57451;52.496;13.456;2023-08-06T06:25:31;17.60;75.20
70079;DHT22;57451;52.496;13.456;2023-08-06T06:27:59;17.60;74.70
70079;DHT22;57451;52.496;13.456;2023-08-06T06:30:27;17.60;74.80
70079;DHT22;57451;52.496;13.456;2023-08-06T06:32:54;17.70;76.00
70079;DHT22;57451;52.496;13.456;2023-08-06T06:35:21;17.70;76.30
70079;DHT22;57451;52.496;13.456;2023-08-06T06:37:49;17.70;76.40
70079;DHT22;57451;52.496;13.456;2023-08-06T06:40:16;17.70;76.50
70079;DHT22;57451;52.496;13.456;2023-08-06T06:42:44;17.70;76.60
70079;DHT22;57451;52.496;13.456;2023-08-06T06:45:14;17.70;76.10
70079;DHT22;57451;52.496;13.456;2023-08-06T06:47:41;17.80;76.70
70079;DHT22;57451;52.496;13.456;2023-08-06T06:50:09;17.80;75.80
70079;DHT22;57451;52.496;13.456;2023-08-06T06:52:37;17.70;75.50
70079;DHT22;57451;52.496;13.456;2023-08-06T06:55:05;17.80;75.20
70079;DHT22;57451;52.496;13.456;2023-08-06T06:57:32;17.80;75.50
70079;DHT22;57451;52.496;13.456;2023-08-06T06:59:59;17.80;75.50
70079;DHT22;57451;52.496;13.456;2023-08-06T07:02:28;17.80;75.10
70079;DHT22;57451;52.496;13.456;2023-08-06T07:04:55;17.90;75.20
70079;DHT22;57451;52.496;13.456;2023-08-06T07:07:23;17.90;74.90
70079;DHT22;57451;52.496;13.456;2023-08-06T07:09:50;17.90;74.80
70079;DHT22;57451;52.496;13.456;2023-08-06T07:12:17;17.90;74.70
70079;DHT22;57451;52.496;13.456;2023-08-06T07:14:45;18.00;74.60
70079;DHT22;57451;52.496;13.456;2023-08-06T07:17:12;18.00;74.70
70079;DHT22;57451;52.496;13.456;2023-08-06T07:19:41;18.00;75.00
70079;DHT22;57451;52.496;13.456;2023-08-06T07:22:08;18.00;74.70
70079;DHT22;57451;52.496;13.456;2023-08-06T07:24:35;18.00;74.40
70079;DHT22;57451;52.496;13.456;2023-08-06T07:27:03;18.10;74.80
70079;DHT22;57451;52.496;13.456;2023-08-06T07:29:31;18.10;74.90
70079;DHT22;57451;52.496;13.456;2023-08-06T07:31:58;18.10;74.40
70079;DHT22;57451;52.496;13.456;2023-08-06T07:34:25;18.10;74.90
70079;DHT22;57451;52.496;13.456;2023-08-06T07:36:54;18.10;75.10
70079;DHT22;57451;52.496;13.456;2023-08-06T07:39:21;18.20;75.10
70079;DHT22;57451;52.496;13.456;2023-08-06T07:41:50;18.20;75.70
70079;DHT22;57451;52.496;13.456;2023-08-06T07:44:18;18.30;75.00
70079;DHT22;57451;52.496;13.456;2023-08-06T07:46:45;18.20;74.90
70079;DHT22;57451;52.496;13.456;2023-08-06T07:49:12;18.30;75.20
70079;DHT22;57451;52.496;13.456;2023-08-06T07:51:40;18.30;75.30
70079;DHT22;57451;52.496;13.456;2023-08-06T07:54:08;18.30;75.20
70079;DHT22;57451;52.496;13.456;2023-08-06T07:56:36;18.30;74.60
70079;DHT22;57451;52.496;13.456;2023-08-06T07:59:04;18.30;75.80
70079;DHT22;57451;52.496;13.456;2023-08-06T08:01:31;18.30;75.60
70079;DHT22;57451;52.496;13.456;2023-08-06T08:03:58;18.30;75.30
70079;DHT22;57451;52.496;13.456;2023-08-06T08:06:26;18.30;75.00
70079;DHT22;57451;52.496;13.456;2023-08-06T08:08:54;18.40;75.30
70079;DHT22;57451;52.496;13.456;2023-08-06T08:11:22;18.40;75.50
70079;DHT22;57451;52.496;13.456;2023-08-06T08:13:49;18.40;75.50
70079;DHT22;57451;52.496;13.456;2023-08-06T08:16:17;18.40;75.40
70079;DHT22;57451;52.496;13.456;2023-08-06T08:18:44;18.40;75.80
70079;DHT22;57451;52.496;13.456;2023-08-06T08:21:11;18.50;75.20
70079;DHT22;57451;52.496;13.456;2023-08-06T08:23:39;18.50;75.40
70079;DHT22;57451;52.496;13.456;2023-08-06T08:26:06;18.40;75.60
70079;DHT22;57451;52.496;13.456;2023-08-06T08:28:35;18.40;75.70
70079;DHT22;57451;52.496;13.456;2023-08-06T08:31:02;18.50;75.80
70079;DHT22;57451;52.496;13.456;2023-08-06T08:33:30;18.50;75.80
70079;DHT22;57451;52.496;13.456;2023-08-06T08:35:57;18.50;75.90
70079;DHT22;57451;52.496;13.456;2023-08-06T08:38:24;18.50;76.00
70079;DHT22;57451;52.496;13.456;2023-08-06T08:40:53;18.50;75.70
70079;DHT22;57451;52.496;13.456;2023-08-06T08:43:22;18.50;75.20
70079;DHT22;57451;52.496;13.456;2023-08-06T08:45:54;18.50;75.50
70079;DHT22;57451;52.496;13.456;2023-08-06T08:48:26;18.50;75.10
70079;DHT22;57451;52.496;13.456;2023-08-06T08:50:55;18.50;75.40
70079;DHT22;57451;52.496;13.456;2023-08-06T08:53:23;18.60;74.80
70079;DHT22;57451;52.496;13.456;2023-08-06T08:55:52;18.60;75.00
70079;DHT22;57451;52.496;13.456;2023-08-06T08:58:20;18.60;75.60
70079;DHT22;57451;52.496;13.456;2023-08-06T09:00:47;18.60;75.40
70079;DHT22;57451;52.496;13.456;2023-08-06T09:03:17;18.70;75.70
70079;DHT22;57451;52.496;13.456;2023-08-06T09:05:45;18.70;75.20
70079;DHT22;57451;52.496;13.456;2023-08-06T09:08:18;18.70;75.10
70079;DHT22;57451;52.496;13.456;2023-08-06T09:10:48;18.80;75.20
70079;DHT22;57451;52.496;13.456;2023-08-06T09:13:16;18.80;75.50
70079;DHT22;57451;52.496;13.456;2023-08-06T09:15:44;18.90;75.50
70079;DHT22;57451;52.496;13.456;2023-08-06T09:18:12;18.90;75.30
70079;DHT22;57451;52.496;13.456;2023-08-06T09:20:41;18.90;75.30
70079;DHT22;57451;52.496;13.456;2023-08-06T09:23:08;18.90;75.40
70079;DHT22;57451;52.496;13.456;2023-08-06T09:25:38;18.90;75.50
70079;DHT22;57451;52.496;13.456;2023-08-06T09:28:07;18.80;74.90
70079;DHT22;57451;52.496;13.456;2023-08-06T09:30:36;18.90;75.20
70079;DHT22;57451;52.496;13.456;2023-08-06T09:33:08;18.90;74.90
70079;DHT22;57451;52.496;13.456;2023-08-06T09:35:37;18.90;75.10
70079;DHT22;57451;52.496;13.456;2023-08-06T09:38:10;18.90;75.10
70079;DHT22;57451;52.496;13.456;2023-08-06T09:40:39;19.00;75.00
70079;DHT22;57451;52.496;13.456;2023-08-06T09:43:06;19.00;75.10
70079;DHT22;57451;52.496;13.456;2023-08-06T09:45:35;19.00;75.10
70079;DHT22;57451;52.496;13.456;2023-08-06T09:48:04;19.10;75.00
70079;DHT22;57451;52.496;13.456;2023-08-06T09:50:33;19.10;74.80
70079;DHT22;57451;52.496;13.456;2023-08-06T09:53:00;19.20;74.70
70079;DHT22;57451;52.496;13.456;2023-08-06T09:55:29;19.20;74.60
70079;DHT22;57451;52.496;13.456;2023-08-06T09:57:58;19.30;74.70
70079;DHT22;57451;52.496;13.456;2023-08-06T10:00:26;19.30;74.70
70079;DHT22;57451;52.496;13.456;2023-08-06T10:02:59;19.30;74.10
70079;DHT22;57451;52.496;13.456;2023-08-06T10:05:27;19.30;74.30
70079;DHT22;57451;52.496;13.456;2023-08-06T10:07:55;19.30;73.60
70079;DHT22;57451;52.496;13.456;2023-08-06T10:10:24;19.40;73.00
70079;DHT22;57451;52.496;13.456;2023-08-06T10:12:55;19.30;71.90
70079;DHT22;57451;52.496;13.456;2023-08-06T10:15:26;19.30;71.90
70079;DHT22;57451;52.496;13.456;2023-08-06T10:17:56;19.30;71.60
70079;DHT22;57451;52.496;13.456;2023-08-06T10:20:25;19.30;71.40
70079;DHT22;57451;52.496;13.456;2023-08-06T10:23:02;19.40;71.30
70079;DHT22;57451;52.496;13.456;2023-08-06T10:25:33;19.40;71.10
70079;DHT22;57451;52.496;13.456;2023-08-06T10:28:07;19.40;70.70
70079;DHT22;57451;52.496;13.456;2023-08-06T10:30:41;19.40;70.50
70079;DHT22;57451;52.496;13.456;2023-08-06T10:33:09;19.40;70.70
70079;DHT22;57451;52.496;13.456;2023-08-06T10:35:38;19.40;70.30
70079;DHT22;57451;52.496;13.456;2023-08-06T10:38:08;19.40;70.40
70079;DHT22;57451;52.496;13.456;2023-08-06T10:40:36;19.40;70.80
70079;DHT22;57451;52.496;13.456;2023-08-06T10:43:06;19.40;70.90
70079;DHT22;57451;52.496;13.456;2023-08-06T10:45:35;19.30;69.90
70079;DHT22;57451;52.496;13.456;2023-08-06T10:48:04;19.30;70.40
70079;DHT22;57451;52.496;13.456;2023-08-06T10:50:32;19.30;70.50
70079;DHT22;57451;52.496;13.456;2023-08-06T10:53:04;19.40;70.30
70079;DHT22;57451;52.496;13.456;2023-08-06T10:55:33;19.40;70.00
70079;DHT22;57451;52.496;13.456;2023-08-06T10:58:01;19.40;70.30
70079;DHT22;57451;52.496;13.456;2023-08-06T11:00:30;19.30;69.10
70079;DHT22;57451;52.496;13.456;2023-08-06T11:02:57;19.20;69.50
70079;DHT22;57451;52.496;13.456;2023-08-06T11:05:25;19.30;69.90
70079;DHT22;57451;52.496;13.456;2023-08-06T11:07:53;19.30;70.30
70079;DHT22;57451;52.496;13.456;2023-08-06T11:10:20;19.40;70.60
70079;DHT22;57451;52.496;13.456;2023-08-06T11:12:48;19.40;70.50
70079;DHT22;57451;52.496;13.456;2023-08-06T11:15:15;19.40;70.40
70079;DHT22;57451;52.496;13.456;2023-08-06T11:17:44;19.40;70.20
70079;DHT22;57451;52.496;13.456;2023-08-06T11:20:12;19.50;70.30
70079;DHT22;57451;52.496;13.456;2023-08-06T11:22:43;19.50;70.20
70079;DHT22;57451;52.496;13.456;2023-08-06T11:25:11;19.50;70.00
70079;DHT22;57451;52.496;13.456;2023-08-06T11:27:38;19.50;70.00
70079;DHT22;57451;52.496;13.456;2023-08-06T11:30:06;19.50;70.20
70079;DHT22;57451;52.496;13.456;2023-08-06T11:32:45;19.50;69.90
70079;DHT22;57451;52.496;13.456;2023-08-06T11:35:14;19.50;70.20
70079;DHT22;57451;52.496;13.456;2023-08-06T11:37:44;19.60;69.90
70079;DHT22;57451;52.496;13.456;2023-08-06T11:40:14;19.50;69.80
70079;DHT22;57451;52.496;13.456;2023-08-06T11:42:42;19.60;69.80
70079;DHT22;57451;52.496;13.456;2023-08-06T11:45:12;19.60;70.10
70079;DHT22;57451;52.496;13.456;2023-08-06T11:47:39;19.60;70.10
70079;DHT22;57451;52.496;13.456;2023-08-06T11:50:22;19.70;70.00
70079;DHT22;57451;52.496;13.456;2023-08-06T11:52:53;19.70;69.90
70079;DHT22;57451;52.496;13.456;2023-08-06T11:55:23;19.70;70.20
70079;DHT22;57451;52.496;13.456;2023-08-06T11:57:51;19.70;70.30
70079;DHT22;57451;52.496;13.456;2023-08-06T12:00:18;19.60;70.30
70079;DHT22;57451;52.496;13.456;2023-08-06T12:02:49;19.60;70.60
70079;DHT22;57451;52.496;13.456;2023-08-06T12:05:21;19.60;70.80
70079;DHT22;57451;52.496;13.456;2023-08-06T12:07:51;19.60;71.20
70079;DHT22;57451;52.496;13.456;2023-08-06T12:10:19;19.60;71.30
70079;DHT22;57451;52.496;13.456;2023-08-06T12:12:47;19.60;70.60
70079;DHT22;57451;52.496;13.456;2023-08-06T12:15:15;19.60;70.90
70079;DHT22;57451;52.496;13.456;2023-08-06T12:17:43;19.60;71.10
70079;DHT22;57451;52.496;13.456;2023-08-06T12:20:10;19.60;71.00
70079;DHT22;57451;52.496;13.456;2023-08-06T12:22:39;19.60;70.60
70079;DHT22;57451;52.496;13.456;2023-08-06T12:25:09;19.60;70.70
70079;DHT22;57451;52.496;13.456;2023-08-06T12:27:39;19.60;71.20
70079;DHT22;57451;52.496;13.456;2023-08-06T12:30:09;19.60;71.50
70079;DHT22;57451;52.496;13.456;2023-08-06T12:32:37;19.70;71.70
70079;DHT22;57451;52.496;13.456;2023-08-06T12:35:05;19.60;71.40
70079;DHT22;57451;52.496;13.456;2023-08-06T12:37:35;19.60;71.40
70079;DHT22;57451;52.496;13.456;2023-08-06T12:40:04;19.60;71.50
70079;DHT22;57451;52.496;13.456;2023-08-06T12:42:52;19.60;71.20
70079;DHT22;57451;52.496;13.456;2023-08-06T12:45:20;19.60;71.30
70079;DHT22;57451;52.496;13.456;2023-08-06T12:47:50;19.70;71.50
70079;DHT22;57451;52.496;13.456;2023-08-06T12:50:18;19.70;71.70
70079;DHT22;57451;52.496;13.456;2023-08-06T12:52:45;19.70;71.80
70079;DHT22;57451;52.496;13.456;2023-08-06T12:55:14;19.70;71.80
70079;DHT22;57451;52.496;13.456;2023-08-06T12:57:41;19.70;72.00
70079;DHT22;57451;52.496;13.456;2023-08-06T13:00:25;19.60;72.30
70079;DHT22;57451;52.496;13.456;2023-08-06T13:02:52;19.60;72.30
70079;DHT22;57451;52.496;13.456;2023-08-06T13:05:20;19.60;72.80
70079;DHT22;57451;52.496;13.456;2023-08-06T13:07:48;19.60;73.00
70079;DHT22;57451;52.496;13.456;2023-08-06T13:10:16;19.60;73.10
70079;DHT22;57451;52.496;13.456;2023-08-06T13:12:44;19.60;73.40
70079;DHT22;57451;52.496;13.456;2023-08-06T13:15:11;19.50;73.20
70079;DHT22;57451;52.496;13.456;2023-08-06T13:17:39;19.50;72.90
70079;DHT22;57451;52.496;13.456;2023-08-06T13:20:07;19.50;73.20
70079;DHT22;57451;52.496;13.456;2023-08-06T13:22:34;19.50;73.40
70079;DHT22;57451;52.496;13.456;2023-08-06T13:25:02;19.50;73.50
70079;DHT22;57451;52.496;13.456;2023-08-06T13:27:30;19.50;73.30
70079;DHT22;57451;52.496;13.456;2023-08-06T13:29:58;19.60;74.00
70079;DHT22;57451;52.496;13.456;2023-08-06T13:32:25;19.50;74.20
70079;DHT22;57451;52.496;13.456;2023-08-06T13:34:53;19.50;73.70
70079;DHT22;57451;52.496;13.456;2023-08-06T13:37:20;19.60;73.80
70079;DHT22;57451;52.496;13.456;2023-08-06T13:39:47;19.50;73.50
70079;DHT22;57451;52.496;13.456;2023-08-06T13:42:15;19.50;73.20
70079;DHT22;57451;52.496;13.456;2023-08-06T13:44:43;19.60;73.40
70079;DHT22;57451;52.496;13.456;2023-08-06T13:47:11;19.60;73.80
70079;DHT22;57451;52.496;13.456;2023-08-06T13:49:38;19.60;73.70
70079;DHT22;57451;52.496;13.456;2023-08-06T13:52:06;19.50;73.70
70079;DHT22;57451;52.496;13.456;2023-08-06T13:54:48;19.50;74.00
70079;DHT22;57451;52.496;13.456;2023-08-06T13:57:15;19.50;73.80
70079;DHT22;57451;52.496;13.456;2023-08-06T13:59:46;19.50;73.80
70079;DHT22;57451;52.496;13.456;2023-08-06T14:02:13;19.50;73.60
70079;DHT22;57451;52.496;13.456;2023-08-06T14:04:41;19.50;73.40
70079;DHT22;57451;52.496;13.456;2023-08-06T14:07:08;19.60;73.90
70079;DHT22;57451;52.496;13.456;2023-08-06T14:09:36;19.50;73.20
70079;DHT22;57451;52.496;13.456;2023-08-06T14:12:03;19.50;73.20
70079;DHT22;57451;52.496;13.456;2023-08-06T14:14:32;19.50;73.30
70079;DHT22;57451;52.496;13.456;2023-08-06T14:17:01;19.50;73.30
70079;DHT22;57451;52.496;13.456;2023-08-06T14:19:29;19.50;73.10
70079;DHT22;57451;52.496;13.456;2023-08-06T14:21:57;19.50;72.90
70079;DHT22;57451;52.496;13.456;2023-08-06T14:24:24;19.40;72.60
70079;DHT22;57451;52.496;13.456;2023-08-06T14:26:51;19.50;72.50
70079;DHT22;57451;52.496;13.456;2023-08-06T14:29:19;19.40;72.20
70079;DHT22;57451;52.496;13.456;2023-08-06T14:31:47;19.40;72.40
70079;DHT22;57451;52.496;13.456;2023-08-06T14:34:16;19.40;72.40
70079;DHT22;57451;52.496;13.456;2023-08-06T14:36:43;19.40;72.20
70079;DHT22;57451;52.496;13.456;2023-08-06T14:39:10;19.40;71.90
70079;DHT22;57451;52.496;13.456;2023-08-06T14:41:38;19.30;72.30
70079;DHT22;57451;52.496;13.456;2023-08-06T14:44:05;19.30;72.20
70079;DHT22;57451;52.496;13.456;2023-08-06T14:46:34;19.30;72.00
70079;DHT22;57451;52.496;13.456;2023-08-06T14:49:01;19.30;72.10
70079;DHT22;57451;52.496;13.456;2023-08-06T14:51:30;19.30;72.30
70079;DHT22;57451;52.496;13.456;2023-08-06T14:53:58;19.30;72.30
70079;DHT22;57451;52.496;13.456;2023-08-06T14:56:25;19.30;72.50
70079;DHT22;57451;52.496;13.456;2023-08-06T14:58:53;19.30;72.40
70079;DHT22;57451;52.496;13.456;2023-08-06T15:01:20;19.30;72.40
70079;DHT22;57451;52.496;13.456;2023-08-06T15:03:47;19.30;72.30
70079;DHT22;57451;52.496;13.456;2023-08-06T15:06:15;19.30;72.40
70079;DHT22;57451;52.496;13.456;2023-08-06T15:08:43;19.30;72.50
70079;DHT22;57451;52.496;13.456;2023-08-06T15:11:13;19.20;72.60
70079;DHT22;57451;52.496;13.456;2023-08-06T15:13:41;19.20;72.50
70079;DHT22;57451;52.496;13.456;2023-08-06T15:16:09;19.20;72.50
70079;DHT22;57451;52.496;13.456;2023-08-06T15:18:36;19.20;72.60
70079;DHT22;57451;52.496;13.456;2023-08-06T15:21:03;19.20;72.70
70079;DHT22;57451;52.496;13.456;2023-08-06T15:23:31;19.20;72.60